Disclaimer

Please do not use the information listed here in-flight or in-navigation, as they are not provided to us by the airports but are provided by volunteers, so they might be outdated.

Search


Regions


Airport information page

Radio informations:
Tower (TWR) - 122.1 MHz
BERLIN ARR - 126.425 MHz
BERLIN INFO - 125.8 MHz
RADAR - 123.3 MHz

Airport informations:
Latitude: 51° 46' 04.20" N
Longitude: 013° 10' 03.60" E
Elevation: 265 feet - 81 meters
Operating hours: Remarks
Operating agency: Military
Timezone: UTC+1(+2DT) - Last Sunday in March to last Sunday in October
Fuel: JP-8, SemiKeroscene MIL Spec T-83133, without icing inhibitor

Runway information:
09/27 - 7936 x 98 feet< - >2419 x 30 meters

Recent METARs:
ETSH 170620Z 07004KT 6000 FEW005 M01/M01 Q1036 WHT
ETSH 170720Z 06003KT 6000 FEW005 M02/M03 Q1036 WHT
ETSH 170720Z 06003KT 6000 FEW005 M02/M03 Q1036 WHT

Airport on the map: